EZY73GW EGCC-DTNH
Flight info
| Callsign | EZY73GW |
|---|---|
| Flight time | N/A |
| Altitude | 35000 |
| Route | LISTO P18 TELBA L151 MID UL612 VEULE DCT DEKOD UN857 DISAK DCT DIRMO DCT ETAMO DCT ADEKA DCT MOKDI DCT MEN DCT AMLIR DCT FJR DCT AMFAC DCT BATIV DCT PELOS DCT IPROM DCT SODIO DCT PININ DCT TUNEX UM738 DIDON G727 ATLEL ATLEL1V |
| Aircraft | A320/M-SDE2E3FGHIJ1RWXYZ/LB1 |
Departure
| Time | N/A |
|---|---|
| Airport | Manchester Airport (EGCC) |
Arrival
| Time | 2026-04-25 18:15 |
|---|---|
| Airport | Enfidha - Hammamet International Airport (DTNH) |
| Time | Latitude | Longitude | Altitude | Speed | Heading |
|---|---|---|---|---|---|
| 2026-04-25 16:39 | 43.70259 | 3.86008 | 35054 ft | 444 kts | 148° |
| 2026-04-25 16:40 | 43.65121 | 3.90743 | 35057 ft | 444 kts | 148° |
| 2026-04-25 16:40 | 43.59992 | 3.95473 | 35056 ft | 443 kts | 147° |
| 2026-04-25 16:41 | 43.55433 | 4.01203 | 35066 ft | 446 kts | 133° |
| 2026-04-25 16:41 | 43.49255 | 4.10797 | 35052 ft | 446 kts | 133° |
| 2026-04-25 16:42 | 43.45131 | 4.17180 | 35055 ft | 446 kts | 133° |
| 2026-04-25 16:42 | 43.40999 | 4.23554 | 35054 ft | 446 kts | 133° |
| 2026-04-25 16:43 | 43.36861 | 4.29919 | 35054 ft | 446 kts | 133° |
| 2026-04-25 16:43 | 43.32720 | 4.36272 | 35054 ft | 446 kts | 133° |
| 2026-04-25 16:44 | 43.28578 | 4.42624 | 35064 ft | 446 kts | 133° |
| 2026-04-25 16:44 | 43.24441 | 4.48968 | 35062 ft | 446 kts | 133° |
| 2026-04-25 16:45 | 43.20298 | 4.55298 | 35059 ft | 446 kts | 133° |
| 2026-04-25 16:45 | 43.16148 | 4.61609 | 35072 ft | 446 kts | 133° |
| 2026-04-25 16:46 | 43.11995 | 4.67916 | 35075 ft | 446 kts | 133° |
| 2026-04-25 16:46 | 43.08540 | 4.73159 | 35090 ft | 446 kts | 133° |
| 2026-04-25 16:47 | 43.03689 | 4.80512 | 35082 ft | 445 kts | 133° |
| 2026-04-25 16:47 | 42.99539 | 4.86793 | 35082 ft | 445 kts | 133° |
| 2026-04-25 16:48 | 42.95413 | 4.93016 | 35081 ft | 445 kts | 133° |
| 2026-04-25 16:48 | 42.91244 | 4.99267 | 35082 ft | 445 kts | 133° |
| 2026-04-25 16:49 | 42.87120 | 5.05572 | 35082 ft | 446 kts | 127° |
| 2026-04-25 16:49 | 42.83442 | 5.12370 | 35088 ft | 446 kts | 127° |
| 2026-04-25 16:50 | 42.79767 | 5.19169 | 35073 ft | 446 kts | 127° |
| 2026-04-25 16:50 | 42.76086 | 5.25965 | 35078 ft | 446 kts | 127° |
| 2026-04-25 16:51 | 42.72400 | 5.32744 | 35090 ft | 446 kts | 127° |
| 2026-04-25 16:51 | 42.69306 | 5.38422 | 35091 ft | 446 kts | 127° |
| 2026-04-25 16:52 | 42.65009 | 5.46290 | 35083 ft | 446 kts | 127° |
| 2026-04-25 16:52 | 42.61316 | 5.53047 | 35099 ft | 446 kts | 127° |
| 2026-04-25 16:53 | 42.55763 | 5.63171 | 35089 ft | 446 kts | 127° |
| 2026-04-25 16:54 | 42.52047 | 5.69908 | 35092 ft | 446 kts | 127° |
| 2026-04-25 16:54 | 42.48333 | 5.76640 | 35104 ft | 445 kts | 127° |
| 2026-04-25 16:55 | 42.44619 | 5.83360 | 35088 ft | 446 kts | 127° |
| 2026-04-25 16:55 | 42.40901 | 5.90075 | 35103 ft | 445 kts | 127° |
| 2026-04-25 16:56 | 42.37181 | 5.96766 | 35097 ft | 445 kts | 127° |
| 2026-04-25 16:56 | 42.33459 | 6.03449 | 35088 ft | 445 kts | 127° |
| 2026-04-25 16:57 | 42.29736 | 6.10123 | 35093 ft | 445 kts | 127° |
| 2026-04-25 16:57 | 42.26037 | 6.16738 | 35102 ft | 444 kts | 127° |
| 2026-04-25 16:58 | 42.22310 | 6.23382 | 35100 ft | 444 kts | 127° |
| 2026-04-25 16:58 | 42.18585 | 6.30022 | 35108 ft | 443 kts | 127° |
| 2026-04-25 16:59 | 42.14861 | 6.36640 | 35113 ft | 443 kts | 127° |
| 2026-04-25 16:59 | 42.11142 | 6.43249 | 35108 ft | 443 kts | 126° |
| 2026-04-25 17:00 | 42.07534 | 6.49966 | 35108 ft | 443 kts | 125° |
| 2026-04-25 17:00 | 42.03973 | 6.56714 | 35118 ft | 442 kts | 125° |
| 2026-04-25 17:01 | 42.00390 | 6.63432 | 35110 ft | 442 kts | 125° |
| 2026-04-25 17:01 | 41.96783 | 6.70133 | 35111 ft | 442 kts | 126° |
| 2026-04-25 17:02 | 41.93174 | 6.76809 | 35123 ft | 441 kts | 126° |
| 2026-04-25 17:02 | 41.89567 | 6.83476 | 35112 ft | 442 kts | 126° |
| 2026-04-25 17:03 | 41.85962 | 6.90151 | 35118 ft | 441 kts | 126° |
| 2026-04-25 17:03 | 41.82361 | 6.96805 | 35124 ft | 441 kts | 126° |
| 2026-04-25 17:04 | 41.78743 | 7.03435 | 35116 ft | 441 kts | 126° |
| 2026-04-25 17:04 | 41.75120 | 7.10054 | 35116 ft | 441 kts | 125° |
| 2026-04-25 17:05 | 41.71501 | 7.16669 | 35130 ft | 440 kts | 125° |
| 2026-04-25 17:05 | 41.66079 | 7.26579 | 35120 ft | 440 kts | 125° |
| 2026-04-25 17:06 | 41.62463 | 7.33168 | 35132 ft | 439 kts | 126° |
| 2026-04-25 17:06 | 41.58837 | 7.39742 | 35123 ft | 439 kts | 126° |
| 2026-04-25 17:07 | 41.55213 | 7.46308 | 35116 ft | 439 kts | 126° |
| 2026-04-25 17:07 | 41.51584 | 7.52866 | 35122 ft | 439 kts | 126° |
| 2026-04-25 17:08 | 41.47953 | 7.59414 | 35133 ft | 439 kts | 125° |
| 2026-04-25 17:08 | 41.44322 | 7.65947 | 35129 ft | 438 kts | 126° |
| 2026-04-25 17:09 | 41.40693 | 7.72466 | 35128 ft | 438 kts | 126° |
| 2026-04-25 17:09 | 41.37072 | 7.78968 | 35123 ft | 437 kts | 126° |
| 2026-04-25 17:10 | 41.33443 | 7.85476 | 35123 ft | 437 kts | 126° |
| 2026-04-25 17:10 | 41.29834 | 7.91922 | 35121 ft | 438 kts | 126° |
| 2026-04-25 17:11 | 41.26189 | 7.98404 | 35131 ft | 437 kts | 126° |
| 2026-04-25 17:11 | 41.22542 | 8.04867 | 35126 ft | 437 kts | 126° |
| 2026-04-25 17:12 | 41.18887 | 8.11333 | 35128 ft | 437 kts | 126° |
| 2026-04-25 17:12 | 41.14717 | 8.17196 | 35128 ft | 439 kts | 142° |
| 2026-04-25 17:13 | 41.11292 | 8.20164 | 35121 ft | 440 kts | 148° |
| 2026-04-25 17:13 | 41.06661 | 8.22932 | 35119 ft | 441 kts | 163° |
| 2026-04-25 17:13 | 41.03719 | 8.24091 | 35121 ft | 441 kts | 163° |
| 2026-04-25 17:14 | 40.97834 | 8.26432 | 35117 ft | 441 kts | 162° |
| 2026-04-25 17:14 | 40.91957 | 8.28787 | 35116 ft | 442 kts | 162° |
| 2026-04-25 17:15 | 40.86071 | 8.31143 | 35114 ft | 442 kts | 162° |
| 2026-04-25 17:15 | 40.80192 | 8.33492 | 35111 ft | 442 kts | 163° |
| 2026-04-25 17:16 | 40.74309 | 8.35835 | 35109 ft | 442 kts | 163° |
| 2026-04-25 17:16 | 40.68431 | 8.38163 | 35111 ft | 441 kts | 163° |
| 2026-04-25 17:17 | 40.62557 | 8.40484 | 35105 ft | 441 kts | 163° |
| 2026-04-25 17:17 | 40.56681 | 8.42809 | 35105 ft | 441 kts | 163° |
| 2026-04-25 17:18 | 40.50812 | 8.45134 | 35106 ft | 440 kts | 163° |
| 2026-04-25 17:18 | 40.44943 | 8.47450 | 35106 ft | 440 kts | 163° |
| 2026-04-25 17:19 | 40.39076 | 8.49762 | 35105 ft | 440 kts | 163° |
| 2026-04-25 17:19 | 40.33211 | 8.52067 | 35108 ft | 440 kts | 163° |
| 2026-04-25 17:20 | 40.28487 | 8.54501 | 35106 ft | 440 kts | 150° |
| 2026-04-25 17:20 | 40.23684 | 8.59394 | 35105 ft | 439 kts | 135° |
| 2026-04-25 17:21 | 40.19318 | 8.64973 | 35097 ft | 439 kts | 135° |
| 2026-04-25 17:21 | 40.14942 | 8.70515 | 35098 ft | 439 kts | 135° |
| 2026-04-25 17:22 | 40.11288 | 8.75130 | 35099 ft | 440 kts | 136° |
| 2026-04-25 17:22 | 40.06150 | 8.81633 | 35087 ft | 441 kts | 135° |
| 2026-04-25 17:23 | 40.01746 | 8.87213 | 35095 ft | 441 kts | 136° |
| 2026-04-25 17:23 | 39.97327 | 8.92778 | 35097 ft | 442 kts | 136° |
| 2026-04-25 17:24 | 39.92904 | 8.98319 | 35113 ft | 441 kts | 136° |
| 2026-04-25 17:24 | 39.88486 | 9.03858 | 35102 ft | 441 kts | 136° |
| 2026-04-25 17:25 | 39.84065 | 9.09401 | 35109 ft | 441 kts | 136° |
| 2026-04-25 17:25 | 39.79641 | 9.14938 | 35105 ft | 442 kts | 136° |
| 2026-04-25 17:26 | 39.75214 | 9.20467 | 35106 ft | 442 kts | 136° |
| 2026-04-25 17:26 | 39.70807 | 9.25960 | 35112 ft | 441 kts | 136° |
| 2026-04-25 17:27 | 39.66377 | 9.31471 | 35114 ft | 441 kts | 136° |
| 2026-04-25 17:27 | 39.62655 | 9.36086 | 35108 ft | 442 kts | 136° |
| 2026-04-25 17:28 | 39.57493 | 9.42490 | 35102 ft | 442 kts | 136° |
| 2026-04-25 17:28 | 39.53043 | 9.47997 | 35111 ft | 442 kts | 136° |
| 2026-04-25 17:29 | 39.48587 | 9.53497 | 35122 ft | 442 kts | 137° |
| 2026-04-25 17:29 | 39.44140 | 9.58983 | 35126 ft | 442 kts | 137° |
| 2026-04-25 17:30 | 39.39689 | 9.64455 | 35121 ft | 442 kts | 137° |
| 2026-04-25 17:30 | 39.35231 | 9.69924 | 35113 ft | 442 kts | 137° |
| 2026-04-25 17:31 | 39.30762 | 9.75395 | 35115 ft | 443 kts | 137° |
| 2026-04-25 17:31 | 39.26290 | 9.80859 | 35109 ft | 443 kts | 137° |
| 2026-04-25 17:32 | 39.21809 | 9.86321 | 35119 ft | 443 kts | 137° |
| 2026-04-25 17:32 | 39.17336 | 9.91776 | 35122 ft | 443 kts | 137° |
| 2026-04-25 17:33 | 39.12867 | 9.97229 | 35115 ft | 443 kts | 137° |
| 2026-04-25 17:33 | 39.08384 | 10.02682 | 35111 ft | 443 kts | 137° |
| 2026-04-25 17:34 | 39.03889 | 10.08119 | 35111 ft | 444 kts | 137° |
| 2026-04-25 17:34 | 38.99387 | 10.13547 | 35112 ft | 444 kts | 137° |
| 2026-04-25 17:35 | 38.94913 | 10.18950 | 35116 ft | 444 kts | 137° |
| 2026-04-25 17:35 | 38.90380 | 10.24419 | 35121 ft | 444 kts | 137° |
| 2026-04-25 17:36 | 38.85897 | 10.29804 | 35107 ft | 445 kts | 138° |
| 2026-04-25 17:36 | 38.81375 | 10.35232 | 35112 ft | 446 kts | 137° |
| 2026-04-25 17:37 | 38.76847 | 10.40660 | 35113 ft | 446 kts | 137° |
| 2026-04-25 17:37 | 38.72311 | 10.46090 | 35115 ft | 446 kts | 138° |
| 2026-04-25 17:38 | 38.68508 | 10.50629 | 35123 ft | 446 kts | 138° |
| 2026-04-25 17:38 | 38.63224 | 10.56923 | 35114 ft | 447 kts | 138° |
| 2026-04-25 17:39 | 38.58677 | 10.62347 | 35118 ft | 447 kts | 138° |
| 2026-04-25 17:39 | 38.54121 | 10.67764 | 35115 ft | 448 kts | 138° |
| 2026-04-25 17:40 | 38.49551 | 10.73174 | 35117 ft | 448 kts | 138° |
| 2026-04-25 17:40 | 38.44981 | 10.78575 | 35117 ft | 448 kts | 138° |
| 2026-04-25 17:41 | 38.40404 | 10.83979 | 35120 ft | 448 kts | 138° |
| 2026-04-25 17:41 | 38.35830 | 10.89380 | 35112 ft | 449 kts | 138° |
| 2026-04-25 17:42 | 38.31243 | 10.94783 | 35110 ft | 450 kts | 138° |
| 2026-04-25 17:42 | 38.26641 | 11.00178 | 35117 ft | 450 kts | 139° |
| 2026-04-25 17:43 | 38.22037 | 11.05576 | 35115 ft | 450 kts | 138° |
| 2026-04-25 17:43 | 38.17425 | 11.10971 | 35117 ft | 451 kts | 139° |
| 2026-04-25 17:44 | 38.12810 | 11.16363 | 35119 ft | 451 kts | 139° |
| 2026-04-25 17:44 | 38.08186 | 11.21756 | 35108 ft | 452 kts | 139° |
| 2026-04-25 17:45 | 38.05118 | 11.25328 | 35108 ft | 452 kts | 139° |
| 2026-04-25 17:45 | 37.98895 | 11.32536 | 35119 ft | 452 kts | 142° |
| 2026-04-25 17:46 | 37.96359 | 11.34775 | 35123 ft | 450 kts | 153° |
| 2026-04-25 17:46 | 37.93522 | 11.36381 | 35124 ft | 446 kts | 165° |
| 2026-04-25 17:46 | 37.87462 | 11.37429 | 35123 ft | 438 kts | 186° |
| 2026-04-25 17:47 | 37.81528 | 11.36028 | 35113 ft | 434 kts | 196° |
| 2026-04-25 17:47 | 37.75652 | 11.34275 | 35112 ft | 434 kts | 196° |
| 2026-04-25 17:48 | 37.66825 | 11.31648 | 35115 ft | 435 kts | 196° |
| 2026-04-25 17:49 | 37.60933 | 11.29909 | 35105 ft | 435 kts | 197° |
| 2026-04-25 17:49 | 37.55040 | 11.28164 | 35109 ft | 435 kts | 197° |
| 2026-04-25 17:50 | 37.49147 | 11.26411 | 35110 ft | 435 kts | 197° |
| 2026-04-25 17:50 | 37.43259 | 11.24664 | 35113 ft | 435 kts | 197° |
| 2026-04-25 17:51 | 37.37371 | 11.22921 | 34838 ft | 432 kts | 197° |
| 2026-04-25 17:51 | 37.34461 | 11.22061 | 34591 ft | 429 kts | 197° |
| 2026-04-25 17:51 | 37.31566 | 11.21208 | 34363 ft | 426 kts | 197° |
| 2026-04-25 17:51 | 37.28722 | 11.20373 | 34128 ft | 424 kts | 197° |
| 2026-04-25 17:52 | 37.25853 | 11.19530 | 33860 ft | 422 kts | 197° |
| 2026-04-25 17:52 | 37.20151 | 11.17859 | 33321 ft | 419 kts | 197° |
| 2026-04-25 17:52 | 37.17318 | 11.17030 | 33016 ft | 416 kts | 197° |
| 2026-04-25 17:53 | 37.14516 | 11.16211 | 32522 ft | 412 kts | 197° |
| 2026-04-25 17:53 | 37.11729 | 11.15394 | 32033 ft | 410 kts | 197° |
| 2026-04-25 17:53 | 37.08965 | 11.14583 | 31547 ft | 407 kts | 197° |
| 2026-04-25 17:53 | 37.06214 | 11.13775 | 31070 ft | 405 kts | 197° |
| 2026-04-25 17:54 | 37.03480 | 11.12973 | 30600 ft | 403 kts | 197° |
| 2026-04-25 17:54 | 37.00756 | 11.12174 | 30139 ft | 401 kts | 197° |
| 2026-04-25 17:54 | 36.98050 | 11.11379 | 29635 ft | 398 kts | 197° |
| 2026-04-25 17:54 | 36.95366 | 11.10595 | 29186 ft | 394 kts | 197° |
| 2026-04-25 17:55 | 36.92708 | 11.09818 | 28759 ft | 390 kts | 197° |
| 2026-04-25 17:55 | 36.90079 | 11.09049 | 28344 ft | 387 kts | 197° |
| 2026-04-25 17:55 | 36.87474 | 11.08282 | 27921 ft | 383 kts | 198° |
| 2026-04-25 17:55 | 36.84896 | 11.07505 | 27492 ft | 380 kts | 198° |
| 2026-04-25 17:56 | 36.82345 | 11.06721 | 27070 ft | 376 kts | 198° |
| 2026-04-25 17:56 | 36.79912 | 11.05601 | 26146 ft | 371 kts | 214° |
| 2026-04-25 17:56 | 36.77899 | 11.03645 | 25200 ft | 366 kts | 229° |
| 2026-04-25 17:56 | 36.76103 | 11.01389 | 24287 ft | 367 kts | 228° |
| 2026-04-25 17:57 | 36.74309 | 10.99127 | 23341 ft | 367 kts | 228° |
| 2026-04-25 17:57 | 36.72508 | 10.96861 | 22297 ft | 368 kts | 228° |
| 2026-04-25 17:57 | 36.70702 | 10.94596 | 21290 ft | 369 kts | 227° |
| 2026-04-25 17:57 | 36.70114 | 10.93860 | 21007 ft | 368 kts | 227° |
| 2026-04-25 17:58 | 36.67126 | 10.90129 | 19724 ft | 359 kts | 227° |
| 2026-04-25 17:58 | 36.65372 | 10.87942 | 18962 ft | 355 kts | 226° |
| 2026-04-25 17:58 | 36.63635 | 10.85779 | 18199 ft | 351 kts | 226° |
| 2026-04-25 17:58 | 36.61917 | 10.83643 | 17387 ft | 347 kts | 226° |
| 2026-04-25 17:59 | 36.60220 | 10.81534 | 16586 ft | 343 kts | 227° |
| 2026-04-25 17:59 | 36.58553 | 10.79461 | 16054 ft | 332 kts | 226° |
| 2026-04-25 17:59 | 36.57135 | 10.77283 | 15658 ft | 322 kts | 244° |
| 2026-04-25 17:59 | 36.56468 | 10.74654 | 15268 ft | 319 kts | 261° |
| 2026-04-25 18:00 | 36.56160 | 10.71928 | 14883 ft | 318 kts | 263° |
| 2026-04-25 18:00 | 36.55894 | 10.69199 | 14496 ft | 317 kts | 263° |
| 2026-04-25 18:00 | 36.55638 | 10.66480 | 14119 ft | 317 kts | 263° |
| 2026-04-25 18:00 | 36.55391 | 10.63795 | 13727 ft | 316 kts | 263° |
| 2026-04-25 18:01 | 36.55141 | 10.61081 | 13308 ft | 315 kts | 263° |
| 2026-04-25 18:01 | 36.54887 | 10.58376 | 12892 ft | 315 kts | 263° |
| 2026-04-25 18:01 | 36.54631 | 10.55681 | 12484 ft | 313 kts | 263° |
| 2026-04-25 18:01 | 36.54373 | 10.52995 | 12072 ft | 312 kts | 263° |
| 2026-04-25 18:02 | 36.54112 | 10.50326 | 11658 ft | 311 kts | 263° |
| 2026-04-25 18:02 | 36.53847 | 10.47668 | 11279 ft | 309 kts | 263° |
| 2026-04-25 18:02 | 36.53579 | 10.45019 | 10888 ft | 307 kts | 263° |
| 2026-04-25 18:02 | 36.53299 | 10.42393 | 10502 ft | 306 kts | 264° |
| 2026-04-25 18:03 | 36.53010 | 10.39785 | 10120 ft | 304 kts | 263° |
| 2026-04-25 18:03 | 36.52708 | 10.37187 | 9715 ft | 303 kts | 263° |
| 2026-04-25 18:03 | 36.52411 | 10.34609 | 9299 ft | 301 kts | 263° |
| 2026-04-25 18:03 | 36.52110 | 10.32042 | 8887 ft | 299 kts | 263° |
| 2026-04-25 18:04 | 36.51818 | 10.29492 | 8479 ft | 297 kts | 263° |
| 2026-04-25 18:04 | 36.51256 | 10.27042 | 8115 ft | 296 kts | 242° |
| 2026-04-25 18:04 | 36.50025 | 10.25048 | 7962 ft | 288 kts | 228° |
| 2026-04-25 18:04 | 36.48531 | 10.23414 | 7644 ft | 286 kts | 216° |
| 2026-04-25 18:05 | 36.46719 | 10.22442 | 7518 ft | 288 kts | 193° |
| 2026-04-25 18:05 | 36.44731 | 10.22086 | 7394 ft | 288 kts | 188° |
| 2026-04-25 18:05 | 36.42740 | 10.21789 | 7275 ft | 289 kts | 188° |
| 2026-04-25 18:05 | 36.40748 | 10.21504 | 7153 ft | 287 kts | 188° |
| 2026-04-25 18:06 | 36.38755 | 10.21220 | 7033 ft | 288 kts | 188° |
| 2026-04-25 18:06 | 36.36793 | 10.20940 | 6920 ft | 288 kts | 188° |
| 2026-04-25 18:06 | 36.34805 | 10.20655 | 6793 ft | 288 kts | 188° |
| 2026-04-25 18:06 | 36.32807 | 10.20369 | 6671 ft | 288 kts | 190° |
| 2026-04-25 18:07 | 36.30853 | 10.20090 | 6554 ft | 279 kts | 189° |
| 2026-04-25 18:07 | 36.28922 | 10.19817 | 6428 ft | 278 kts | 189° |
| 2026-04-25 18:07 | 36.27046 | 10.19553 | 6236 ft | 267 kts | 189° |
| 2026-04-25 18:07 | 36.25210 | 10.19292 | 5858 ft | 265 kts | 189° |
| 2026-04-25 18:08 | 36.23384 | 10.19032 | 5448 ft | 263 kts | 189° |
| 2026-04-25 18:08 | 36.21567 | 10.18773 | 5031 ft | 263 kts | 188° |
| 2026-04-25 18:08 | 36.19755 | 10.18515 | 4643 ft | 260 kts | 188° |
| 2026-04-25 18:08 | 36.18011 | 10.18266 | 4579 ft | 244 kts | 188° |
| 2026-04-25 18:09 | 36.16405 | 10.18039 | 4491 ft | 221 kts | 187° |
| 2026-04-25 18:09 | 36.14926 | 10.17829 | 4412 ft | 208 kts | 189° |
| 2026-04-25 18:09 | 36.13987 | 10.17693 | 4349 ft | 202 kts | 188° |
| 2026-04-25 18:09 | 36.13077 | 10.17562 | 4289 ft | 196 kts | 188° |
| 2026-04-25 18:10 | 36.11322 | 10.17335 | 4108 ft | 187 kts | 181° |
| 2026-04-25 18:10 | 36.10030 | 10.17604 | 3815 ft | 188 kts | 161° |
| 2026-04-25 18:10 | 36.08615 | 10.18773 | 3588 ft | 187 kts | 134° |
| 2026-04-25 18:10 | 36.07916 | 10.20121 | 3419 ft | 189 kts | 115° |
| 2026-04-25 18:11 | 36.07643 | 10.21731 | 3207 ft | 196 kts | 92° |
| 2026-04-25 18:11 | 36.07636 | 10.22868 | 3039 ft | 194 kts | 91° |
| 2026-04-25 18:11 | 36.07636 | 10.24515 | 2790 ft | 189 kts | 91° |
| 2026-04-25 18:11 | 36.07634 | 10.26085 | 2544 ft | 176 kts | 91° |
| 2026-04-25 18:12 | 36.07631 | 10.27560 | 2319 ft | 168 kts | 92° |
| 2026-04-25 18:12 | 36.07627 | 10.28959 | 2118 ft | 163 kts | 93° |
| 2026-04-25 18:12 | 36.07622 | 10.30349 | 1896 ft | 163 kts | 96° |
| 2026-04-25 18:12 | 36.07618 | 10.31755 | 1650 ft | 160 kts | 94° |
| 2026-04-25 18:13 | 36.07613 | 10.33108 | 1434 ft | 161 kts | 95° |
| 2026-04-25 18:13 | 36.07610 | 10.34423 | 1221 ft | 145 kts | 95° |
| 2026-04-25 18:13 | 36.07607 | 10.35611 | 1036 ft | 133 kts | 95° |
| 2026-04-25 18:14 | 36.07602 | 10.37880 | 706 ft | 132 kts | 90° |
| 2026-04-25 18:14 | 36.07586 | 10.39037 | 588 ft | 132 kts | 89° |
| 2026-04-25 18:14 | 36.07580 | 10.40172 | 407 ft | 130 kts | 88° |
| 2026-04-25 18:14 | 36.07578 | 10.41299 | 186 ft | 129 kts | 86° |
| 2026-04-25 18:15 | 36.07575 | 10.42403 | 50 ft | 126 kts | 87° |
| 2026-04-25 18:15 | 36.07585 | 10.43274 | 31 ft | 45 kts | 88° |
| 2026-04-25 18:15 | 36.07582 | 10.43588 | 32 ft | 34 kts | 91° |
| 2026-04-25 18:15 | 36.07575 | 10.43889 | 29 ft | 36 kts | 91° |
| 2026-04-25 18:16 | 36.07582 | 10.44116 | 32 ft | 23 kts | 81° |
| 2026-04-25 18:16 | 36.07627 | 10.44303 | 31 ft | 22 kts | 65° |
| 2026-04-25 18:16 | 36.07734 | 10.44379 | 33 ft | 7 kts | 295° |
| 2026-04-25 18:17 | 36.07742 | 10.44315 | 33 ft | 13 kts | 273° |
| 2026-04-25 18:17 | 36.07744 | 10.44187 | 32 ft | 15 kts | 270° |
| 2026-04-25 18:17 | 36.07745 | 10.44063 | 32 ft | 14 kts | 270° |
| 2026-04-25 18:17 | 36.07746 | 10.43949 | 32 ft | 13 kts | 271° |
| 2026-04-25 18:18 | 36.07749 | 10.43849 | 31 ft | 12 kts | 280° |
| 2026-04-25 18:18 | 36.07810 | 10.43799 | 29 ft | 12 kts | 6° |
| 2026-04-25 18:18 | 36.07906 | 10.43799 | 27 ft | 16 kts | 359° |
| 2026-04-25 18:18 | 36.08004 | 10.43802 | 25 ft | 7 kts | 12° |
| 2026-04-25 18:19 | 36.08037 | 10.43819 | 26 ft | 6 kts | 26° |
| 2026-04-25 18:19 | 36.08091 | 10.43855 | 16 ft | 5 kts | 31° |
| 2026-04-25 18:19 | 36.08098 | 10.43860 | 16 ft | 2 kts | 30° |
| 2026-04-25 18:19 | 36.08117 | 10.43874 | 16 ft | 2 kts | 30° |
| 2026-04-25 18:20 | 36.08118 | 10.43874 | 16 ft | 0 kts | 30° |